Sal, Cape Verde
Current Conditions -  °F | °C
As of 5:00 AM on Tuesday 21 Oct 2014 (Local Time) from GVAC Reporting Station
Scattered Clouds Scattered Clouds  
Wind Chill: 24°   Ceiling: Unl
Heat Index: 24°   Visibility: 6mi
Dew Point: 21°   Wind: 5mph
Humidity: 83%   Direction: 60°ENE
Pressure: 29.94"   Gusts: NA
Location:  16.72°N, 22.93°W
Report Text: GVAC 210600Z 06004KT 9999 SCT014 24/21 Q1014 NOSIG
Loading
Personal Weather Stations






























Interactive Weather Map
Tropical Storm Tracking
New forecast layout! Learn more

10-Day Weather Forecast

Advertisements
Track Severe Weather on mobile